Hovedside
METAR-TAF:

METAR-TAF

Lufthavner :

Arlanda lufthavn

Stockholm-Arlanda, Sverige

breddegrad: 59-39N, lengdegrad: 017-57E, høyde over havet: 38 m

Gjeldene værobservasjon

Denne rapporten ble laget for 34 minutter siden, klokken 17:20 UTC
Vind 4 kt fra Sør-sørøst, skiftende mellom Øst-sørøst og Sør-sørvest
Temperatur 17°C
Luftfuktighet 48%
Trykk 1011 hPa
Sikt 10 km eller mer
ingen skyer under 1500 m og ingen bygeskyer

METAR: ESSA 231720Z 16004KT 120V210 CAVOK 17/06 Q1011 NOSIG

Tid: 19:54 (17:54 UTC)

Varsel

Denne rapporten ble laget for 24 minutter siden, klokken 17:30 UTC
Varsel gyldig fra 23. klokken 18 UTC til 24. klokken 18 UTC
Vind 4 kt fra Sør-sørvest
Sikt 10 km eller mer
ingen skyer under 1500 m og ingen bygeskyer
Blir
fra 24. klokken 07 UTC til 24. klokken 09 UTC
Vind 10 kt fra Nord

TAF: ESSA 231730Z 2318/2418 21004KT CAVOK BECMG 2407/2409 01010KT

Værobservasjoner og værvarsel for over 4000 flyplasser (METAR- og TAF-rapporter).

Tilgjengelige stasjoner er representert av de røde og gule prikkene på kartet.

Hold musepekeren over prikken for å se navnet på stasjonen.

Klikk så for å se værobservasjoner og -varsler.

For å forandre kartet kan du klikke på den grønne knappen med svart kryss for å zoome inn, på den grønne knappen med strek for å zoome ut, eller på de grønne pilene for å se tilstøtende kart.


METAR-TAF: